Red Wing, Minnesota
Current Conditions -  °F | °C
As of 3:11 AM on Wednesday 28 Jan 2015 (Local Time) from KRGK Reporting Station
Overcast Overcast  
Wind Chill: 19°   Ceiling: 1400
Heat Index: 28°   Visibility: 10mi
Dew Point: 25°   Wind: 10mph
Humidity: 86%   Direction: 160°SSE
Pressure: 30.1"   Gusts: NA
Location:  44.57°N, 92.53°W
Report Text: KRGK 280911Z AUTO 16009KT 10SM OVC014 M02/M04 A3010 RMK AO2
Loading
Personal Weather Stations






























Interactive Weather Map New forecast layout! Learn more

10-Day Weather Forecast

Advertisements
Track Severe Weather on mobile